sensor_id;sensor_type;location;lat;lon;timestamp;temperature;humidity
27671;DHT22;15077;49.704;9.908;2023-02-25T00:01:09;7.90;69.00
27671;DHT22;15077;49.704;9.908;2023-02-25T00:03:37;7.90;68.90
27671;DHT22;15077;49.704;9.908;2023-02-25T00:06:05;7.90;69.00
27671;DHT22;15077;49.704;9.908;2023-02-25T00:08:32;7.90;69.00
27671;DHT22;15077;49.704;9.908;2023-02-25T00:11:03;7.90;68.90
27671;DHT22;15077;49.704;9.908;2023-02-25T00:13:31;7.90;69.00
27671;DHT22;15077;49.704;9.908;2023-02-25T00:15:58;7.90;68.80
27671;DHT22;15077;49.704;9.908;2023-02-25T00:18:27;7.90;68.80
27671;DHT22;15077;49.704;9.908;2023-02-25T00:20:55;7.90;68.90
27671;DHT22;15077;49.704;9.908;2023-02-25T00:23:21;7.80;68.80
27671;DHT22;15077;49.704;9.908;2023-02-25T00:25:47;7.80;68.90
27671;DHT22;15077;49.704;9.908;2023-02-25T00:28:13;7.80;68.90
27671;DHT22;15077;49.704;9.908;2023-02-25T00:30:41;7.80;69.00
27671;DHT22;15077;49.704;9.908;2023-02-25T00:33:07;7.80;68.90
27671;DHT22;15077;49.704;9.908;2023-02-25T00:35:37;7.80;68.90
27671;DHT22;15077;49.704;9.908;2023-02-25T00:38:05;7.80;68.90
27671;DHT22;15077;49.704;9.908;2023-02-25T00:40:32;7.90;68.90
27671;DHT22;15077;49.704;9.908;2023-02-25T00:43:01;7.80;68.70
27671;DHT22;15077;49.704;9.908;2023-02-25T00:45:27;7.80;68.70
27671;DHT22;15077;49.704;9.908;2023-02-25T00:47:53;7.80;68.60
27671;DHT22;15077;49.704;9.908;2023-02-25T00:50:19;7.80;68.50
27671;DHT22;15077;49.704;9.908;2023-02-25T00:52:44;7.70;68.50
27671;DHT22;15077;49.704;9.908;2023-02-25T00:55:11;7.70;68.50
27671;DHT22;15077;49.704;9.908;2023-02-25T00:57:37;7.70;68.50
27671;DHT22;15077;49.704;9.908;2023-02-25T01:00:05;7.60;68.40
27671;DHT22;15077;49.704;9.908;2023-02-25T01:02:35;7.60;68.40
27671;DHT22;15077;49.704;9.908;2023-02-25T01:05:02;7.60;68.30
27671;DHT22;15077;49.704;9.908;2023-02-25T01:07:28;7.50;68.90
27671;DHT22;15077;49.704;9.908;2023-02-25T01:09:55;7.50;68.10
27671;DHT22;15077;49.704;9.908;2023-02-25T01:12:21;7.50;68.10
27671;DHT22;15077;49.704;9.908;2023-02-25T01:14:48;7.40;68.00
27671;DHT22;15077;49.704;9.908;2023-02-25T01:17:14;7.40;68.00
27671;DHT22;15077;49.704;9.908;2023-02-25T01:19:40;7.40;68.00
27671;DHT22;15077;49.704;9.908;2023-02-25T01:22:06;7.30;68.00
27671;DHT22;15077;49.704;9.908;2023-02-25T01:24:32;7.30;68.10
27671;DHT22;15077;49.704;9.908;2023-02-25T01:27:01;7.20;68.10
27671;DHT22;15077;49.704;9.908;2023-02-25T01:29:33;7.20;68.20
27671;DHT22;15077;49.704;9.908;2023-02-25T01:32:07;7.20;68.80
27671;DHT22;15077;49.704;9.908;2023-02-25T01:34:38;7.10;68.10
27671;DHT22;15077;49.704;9.908;2023-02-25T01:37:05;7.10;68.20
27671;DHT22;15077;49.704;9.908;2023-02-25T01:39:31;7.10;68.20
27671;DHT22;15077;49.704;9.908;2023-02-25T01:41:58;7.10;68.30
27671;DHT22;15077;49.704;9.908;2023-02-25T01:44:30;7.00;68.20
27671;DHT22;15077;49.704;9.908;2023-02-25T01:47:02;7.00;68.30
27671;DHT22;15077;49.704;9.908;2023-02-25T01:49:33;7.00;68.20
27671;DHT22;15077;49.704;9.908;2023-02-25T01:52:10;7.00;68.20
27671;DHT22;15077;49.704;9.908;2023-02-25T01:54:40;7.00;68.10
27671;DHT22;15077;49.704;9.908;2023-02-25T01:57:11;7.00;68.00
27671;DHT22;15077;49.704;9.908;2023-02-25T01:59:44;7.00;68.00
27671;DHT22;15077;49.704;9.908;2023-02-25T02:02:14;7.00;68.00
27671;DHT22;15077;49.704;9.908;2023-02-25T02:04:44;7.00;68.10
27671;DHT22;15077;49.704;9.908;2023-02-25T02:07:16;7.00;68.10
27671;DHT22;15077;49.704;9.908;2023-02-25T02:09:44;6.90;68.00
27671;DHT22;15077;49.704;9.908;2023-02-25T02:12:35;6.90;67.90
27671;DHT22;15077;49.704;9.908;2023-02-25T02:15:11;7.00;68.00
27671;DHT22;15077;49.704;9.908;2023-02-25T02:17:58;7.00;68.00
27671;DHT22;15077;49.704;9.908;2023-02-25T02:20:57;7.00;67.90
27671;DHT22;15077;49.704;9.908;2023-02-25T02:35:48;7.00;67.70
27671;DHT22;15077;49.704;9.908;2023-02-25T02:41:49;7.00;67.70
27671;DHT22;15077;49.704;9.908;2023-02-25T02:44:56;7.00;67.60
27671;DHT22;15077;49.704;9.908;2023-02-25T02:48:01;7.00;67.60
27671;DHT22;15077;49.704;9.908;2023-02-25T02:50:37;7.00;67.60
27671;DHT22;15077;49.704;9.908;2023-02-25T02:53:10;7.00;67.60
27671;DHT22;15077;49.704;9.908;2023-02-25T02:55:44;7.00;67.60
27671;DHT22;15077;49.704;9.908;2023-02-25T02:58:20;7.00;67.60
27671;DHT22;15077;49.704;9.908;2023-02-25T03:01:04;7.00;67.50
27671;DHT22;15077;49.704;9.908;2023-02-25T03:03:40;7.00;67.30
27671;DHT22;15077;49.704;9.908;2023-02-25T03:06:18;7.00;67.30
27671;DHT22;15077;49.704;9.908;2023-02-25T03:08:58;7.00;67.30
27671;DHT22;15077;49.704;9.908;2023-02-25T03:11:29;7.00;67.20
27671;DHT22;15077;49.704;9.908;2023-02-25T03:13:55;7.00;67.20
27671;DHT22;15077;49.704;9.908;2023-02-25T03:16:34;7.00;67.30
27671;DHT22;15077;49.704;9.908;2023-02-25T03:21:49;7.00;67.30
27671;DHT22;15077;49.704;9.908;2023-02-25T03:24:23;7.00;67.10
27671;DHT22;15077;49.704;9.908;2023-02-25T03:26:54;7.00;67.10
27671;DHT22;15077;49.704;9.908;2023-02-25T03:29:23;7.00;67.10
27671;DHT22;15077;49.704;9.908;2023-02-25T03:32:03;7.00;67.00
27671;DHT22;15077;49.704;9.908;2023-02-25T03:34:38;7.00;66.90
27671;DHT22;15077;49.704;9.908;2023-02-25T03:37:21;7.00;66.90
27671;DHT22;15077;49.704;9.908;2023-02-25T03:39:53;7.00;66.90
27671;DHT22;15077;49.704;9.908;2023-02-25T03:42:33;7.00;66.90
27671;DHT22;15077;49.704;9.908;2023-02-25T03:45:03;7.00;66.90
27671;DHT22;15077;49.704;9.908;2023-02-25T03:47:34;6.90;66.90
27671;DHT22;15077;49.704;9.908;2023-02-25T03:52:45;6.90;66.90
27671;DHT22;15077;49.704;9.908;2023-02-25T03:55:13;6.90;66.80
27671;DHT22;15077;49.704;9.908;2023-02-25T03:57:43;6.90;66.80
27671;DHT22;15077;49.704;9.908;2023-02-25T04:02:48;6.90;66.90
27671;DHT22;15077;49.704;9.908;2023-02-25T04:05:18;6.90;66.90
27671;DHT22;15077;49.704;9.908;2023-02-25T04:07:45;6.90;66.80
27671;DHT22;15077;49.704;9.908;2023-02-25T04:10:14;6.90;66.90
27671;DHT22;15077;49.704;9.908;2023-02-25T04:12:41;6.90;66.90
27671;DHT22;15077;49.704;9.908;2023-02-25T04:15:08;6.90;66.90
27671;DHT22;15077;49.704;9.908;2023-02-25T04:17:39;6.90;66.90
27671;DHT22;15077;49.704;9.908;2023-02-25T04:20:07;6.80;66.90
27671;DHT22;15077;49.704;9.908;2023-02-25T04:22:34;6.80;66.90
27671;DHT22;15077;49.704;9.908;2023-02-25T04:25:01;6.80;66.90
27671;DHT22;15077;49.704;9.908;2023-02-25T04:27:28;6.80;67.00
27671;DHT22;15077;49.704;9.908;2023-02-25T04:29:58;6.80;67.00
27671;DHT22;15077;49.704;9.908;2023-02-25T04:32:25;6.80;67.00
27671;DHT22;15077;49.704;9.908;2023-02-25T04:34:53;6.80;67.00
27671;DHT22;15077;49.704;9.908;2023-02-25T04:37:26;6.80;67.00
27671;DHT22;15077;49.704;9.908;2023-02-25T04:39:54;6.80;67.00
27671;DHT22;15077;49.704;9.908;2023-02-25T04:42:20;6.80;66.90
27671;DHT22;15077;49.704;9.908;2023-02-25T04:44:46;6.80;66.90
27671;DHT22;15077;49.704;9.908;2023-02-25T04:47:12;6.80;66.90
27671;DHT22;15077;49.704;9.908;2023-02-25T04:49:39;6.80;66.90
27671;DHT22;15077;49.704;9.908;2023-02-25T04:52:11;6.80;66.90
27671;DHT22;15077;49.704;9.908;2023-02-25T04:54:40;6.80;66.90
27671;DHT22;15077;49.704;9.908;2023-02-25T04:57:07;6.80;66.90
27671;DHT22;15077;49.704;9.908;2023-02-25T04:59:35;6.70;66.80
27671;DHT22;15077;49.704;9.908;2023-02-25T05:02:01;6.70;66.80
27671;DHT22;15077;49.704;9.908;2023-02-25T05:04:27;6.70;66.70
27671;DHT22;15077;49.704;9.908;2023-02-25T05:06:53;6.70;66.70
27671;DHT22;15077;49.704;9.908;2023-02-25T05:09:18;6.70;66.70
27671;DHT22;15077;49.704;9.908;2023-02-25T05:11:45;6.70;66.60
27671;DHT22;15077;49.704;9.908;2023-02-25T05:14:11;6.70;66.60
27671;DHT22;15077;49.704;9.908;2023-02-25T05:16:37;6.70;66.50
27671;DHT22;15077;49.704;9.908;2023-02-25T05:19:03;6.70;66.40
27671;DHT22;15077;49.704;9.908;2023-02-25T05:21:29;6.70;66.40
27671;DHT22;15077;49.704;9.908;2023-02-25T05:23:55;6.70;66.40
27671;DHT22;15077;49.704;9.908;2023-02-25T05:26:22;6.60;66.40
27671;DHT22;15077;49.704;9.908;2023-02-25T05:28:51;6.60;66.40
27671;DHT22;15077;49.704;9.908;2023-02-25T05:31:19;6.60;66.40
27671;DHT22;15077;49.704;9.908;2023-02-25T05:33:46;6.60;66.30
27671;DHT22;15077;49.704;9.908;2023-02-25T05:36:13;6.60;66.80
27671;DHT22;15077;49.704;9.908;2023-02-25T05:38:40;6.60;66.80
27671;DHT22;15077;49.704;9.908;2023-02-25T05:41:07;6.60;66.20
27671;DHT22;15077;49.704;9.908;2023-02-25T05:43:35;6.60;66.10
27671;DHT22;15077;49.704;9.908;2023-02-25T05:46:02;6.60;66.30
27671;DHT22;15077;49.704;9.908;2023-02-25T05:48:30;6.60;66.30
27671;DHT22;15077;49.704;9.908;2023-02-25T05:51:05;6.60;66.30
27671;DHT22;15077;49.704;9.908;2023-02-25T05:53:33;6.60;66.20
27671;DHT22;15077;49.704;9.908;2023-02-25T05:56:03;6.60;66.30
27671;DHT22;15077;49.704;9.908;2023-02-25T05:58:30;6.60;66.30
27671;DHT22;15077;49.704;9.908;2023-02-25T06:00:57;6.50;66.30
27671;DHT22;15077;49.704;9.908;2023-02-25T06:03:23;6.50;66.30
27671;DHT22;15077;49.704;9.908;2023-02-25T06:05:48;6.50;66.30
27671;DHT22;15077;49.704;9.908;2023-02-25T06:08:14;6.50;66.30
27671;DHT22;15077;49.704;9.908;2023-02-25T06:10:40;6.50;66.30
27671;DHT22;15077;49.704;9.908;2023-02-25T06:13:07;6.60;66.30
27671;DHT22;15077;49.704;9.908;2023-02-25T06:15:38;6.50;66.30
27671;DHT22;15077;49.704;9.908;2023-02-25T06:18:05;6.50;66.20
27671;DHT22;15077;49.704;9.908;2023-02-25T06:20:32;6.50;66.10
27671;DHT22;15077;49.704;9.908;2023-02-25T06:23:00;6.50;66.10
27671;DHT22;15077;49.704;9.908;2023-02-25T06:25:27;6.50;66.10
27671;DHT22;15077;49.704;9.908;2023-02-25T06:27:58;6.50;66.00
27671;DHT22;15077;49.704;9.908;2023-02-25T06:30:26;6.50;66.00
27671;DHT22;15077;49.704;9.908;2023-02-25T06:32:52;6.50;66.00
27671;DHT22;15077;49.704;9.908;2023-02-25T06:35:19;6.50;66.10
27671;DHT22;15077;49.704;9.908;2023-02-25T06:37:48;6.50;66.10
27671;DHT22;15077;49.704;9.908;2023-02-25T06:40:15;6.50;66.10
27671;DHT22;15077;49.704;9.908;2023-02-25T06:42:41;6.50;66.20
27671;DHT22;15077;49.704;9.908;2023-02-25T06:45:08;6.50;66.20
27671;DHT22;15077;49.704;9.908;2023-02-25T06:47:34;6.40;66.20
27671;DHT22;15077;49.704;9.908;2023-02-25T06:49:59;6.50;66.30
27671;DHT22;15077;49.704;9.908;2023-02-25T06:52:25;6.50;66.30
27671;DHT22;15077;49.704;9.908;2023-02-25T06:54:51;6.50;66.30
27671;DHT22;15077;49.704;9.908;2023-02-25T06:57:17;6.50;66.30
27671;DHT22;15077;49.704;9.908;2023-02-25T06:59:44;6.50;66.30
27671;DHT22;15077;49.704;9.908;2023-02-25T07:02:11;6.50;66.30
27671;DHT22;15077;49.704;9.908;2023-02-25T07:04:37;6.50;66.30
27671;DHT22;15077;49.704;9.908;2023-02-25T07:07:03;6.60;66.30
27671;DHT22;15077;49.704;9.908;2023-02-25T07:09:29;6.60;66.30
27671;DHT22;15077;49.704;9.908;2023-02-25T07:11:55;6.60;66.30
27671;DHT22;15077;49.704;9.908;2023-02-25T07:14:21;6.60;66.30
27671;DHT22;15077;49.704;9.908;2023-02-25T07:16:46;6.60;66.30
27671;DHT22;15077;49.704;9.908;2023-02-25T07:19:12;6.60;66.30
27671;DHT22;15077;49.704;9.908;2023-02-25T07:21:41;6.60;66.30
27671;DHT22;15077;49.704;9.908;2023-02-25T07:24:09;6.60;66.40
27671;DHT22;15077;49.704;9.908;2023-02-25T07:26:37;6.60;66.30
27671;DHT22;15077;49.704;9.908;2023-02-25T07:29:04;6.60;66.40
27671;DHT22;15077;49.704;9.908;2023-02-25T07:31:31;6.60;66.50
27671;DHT22;15077;49.704;9.908;2023-02-25T07:33:57;6.60;66.50
27671;DHT22;15077;49.704;9.908;2023-02-25T07:36:33;6.70;66.50
27671;DHT22;15077;49.704;9.908;2023-02-25T07:39:07;6.70;66.60
27671;DHT22;15077;49.704;9.908;2023-02-25T07:41:35;6.70;66.60
27671;DHT22;15077;49.704;9.908;2023-02-25T07:44:02;6.80;66.70
27671;DHT22;15077;49.704;9.908;2023-02-25T07:46:29;6.80;66.70
27671;DHT22;15077;49.704;9.908;2023-02-25T07:48:55;6.80;66.70
27671;DHT22;15077;49.704;9.908;2023-02-25T07:51:23;6.80;66.70
27671;DHT22;15077;49.704;9.908;2023-02-25T07:53:51;6.80;66.70
27671;DHT22;15077;49.704;9.908;2023-02-25T07:56:19;6.90;66.70
27671;DHT22;15077;49.704;9.908;2023-02-25T07:58:46;6.90;66.70
27671;DHT22;15077;49.704;9.908;2023-02-25T08:01:23;6.90;66.80
27671;DHT22;15077;49.704;9.908;2023-02-25T08:03:52;7.00;66.80
27671;DHT22;15077;49.704;9.908;2023-02-25T08:06:21;7.00;66.80
27671;DHT22;15077;49.704;9.908;2023-02-25T08:08:48;7.00;66.80
27671;DHT22;15077;49.704;9.908;2023-02-25T08:11:17;7.00;66.80
27671;DHT22;15077;49.704;9.908;2023-02-25T08:13:44;7.00;66.80
27671;DHT22;15077;49.704;9.908;2023-02-25T08:16:13;7.00;66.90
27671;DHT22;15077;49.704;9.908;2023-02-25T08:18:42;7.10;67.00
27671;DHT22;15077;49.704;9.908;2023-02-25T08:21:09;7.10;67.00
27671;DHT22;15077;49.704;9.908;2023-02-25T08:23:35;7.10;67.00
27671;DHT22;15077;49.704;9.908;2023-02-25T08:26:01;7.20;66.90
27671;DHT22;15077;49.704;9.908;2023-02-25T08:28:28;7.20;66.90
27671;DHT22;15077;49.704;9.908;2023-02-25T08:30:56;7.20;66.90
27671;DHT22;15077;49.704;9.908;2023-02-25T08:33:22;7.20;66.80
27671;DHT22;15077;49.704;9.908;2023-02-25T08:35:49;7.30;66.90
27671;DHT22;15077;49.704;9.908;2023-02-25T08:38:16;7.30;66.90
27671;DHT22;15077;49.704;9.908;2023-02-25T08:40:42;7.30;66.70
27671;DHT22;15077;49.704;9.908;2023-02-25T08:43:09;7.40;66.80
27671;DHT22;15077;49.704;9.908;2023-02-25T08:45:36;7.40;66.80
27671;DHT22;15077;49.704;9.908;2023-02-25T08:48:04;7.40;66.80
27671;DHT22;15077;49.704;9.908;2023-02-25T08:50:30;7.50;66.80
27671;DHT22;15077;49.704;9.908;2023-02-25T08:52:56;7.50;66.90
27671;DHT22;15077;49.704;9.908;2023-02-25T08:55:23;7.50;67.00
27671;DHT22;15077;49.704;9.908;2023-02-25T08:57:50;7.50;67.00
27671;DHT22;15077;49.704;9.908;2023-02-25T09:00:17;7.60;66.90
27671;DHT22;15077;49.704;9.908;2023-02-25T09:02:43;7.60;66.90
27671;DHT22;15077;49.704;9.908;2023-02-25T09:05:09;7.60;66.80
27671;DHT22;15077;49.704;9.908;2023-02-25T09:07:35;7.70;66.60
27671;DHT22;15077;49.704;9.908;2023-02-25T09:10:02;7.70;66.70
27671;DHT22;15077;49.704;9.908;2023-02-25T09:12:32;7.80;66.80
27671;DHT22;15077;49.704;9.908;2023-02-25T09:15:00;7.80;66.70
27671;DHT22;15077;49.704;9.908;2023-02-25T09:17:26;7.90;66.50
27671;DHT22;15077;49.704;9.908;2023-02-25T09:19:52;8.00;66.30
27671;DHT22;15077;49.704;9.908;2023-02-25T09:22:18;8.00;65.50
27671;DHT22;15077;49.704;9.908;2023-02-25T09:24:44;8.10;65.60
27671;DHT22;15077;49.704;9.908;2023-02-25T09:27:10;8.10;65.60
27671;DHT22;15077;49.704;9.908;2023-02-25T09:29:37;8.10;65.60
27671;DHT22;15077;49.704;9.908;2023-02-25T09:32:06;8.20;65.60
27671;DHT22;15077;49.704;9.908;2023-02-25T09:34:32;8.20;65.60
27671;DHT22;15077;49.704;9.908;2023-02-25T09:36:59;8.20;65.50
27671;DHT22;15077;49.704;9.908;2023-02-25T09:39:28;8.20;65.10
27671;DHT22;15077;49.704;9.908;2023-02-25T09:42:05;8.20;65.00
27671;DHT22;15077;49.704;9.908;2023-02-25T09:44:46;8.20;64.80
27671;DHT22;15077;49.704;9.908;2023-02-25T09:47:51;8.20;65.10
27671;DHT22;15077;49.704;9.908;2023-02-25T09:50:29;8.20;65.10
27671;DHT22;15077;49.704;9.908;2023-02-25T09:53:04;8.20;65.50
27671;DHT22;15077;49.704;9.908;2023-02-25T09:55:40;8.30;65.80
27671;DHT22;15077;49.704;9.908;2023-02-25T09:58:12;8.40;65.30
27671;DHT22;15077;49.704;9.908;2023-02-25T10:01:05;8.40;65.80
27671;DHT22;15077;49.704;9.908;2023-02-25T10:03:47;8.60;65.70
27671;DHT22;15077;49.704;9.908;2023-02-25T10:06:39;8.70;65.40
27671;DHT22;15077;49.704;9.908;2023-02-25T10:12:22;8.90;65.40
27671;DHT22;15077;49.704;9.908;2023-02-25T10:15:20;9.10;64.90
27671;DHT22;15077;49.704;9.908;2023-02-25T10:24:22;9.60;64.00
27671;DHT22;15077;49.704;9.908;2023-02-25T10:26:58;9.70;64.40
27671;DHT22;15077;49.704;9.908;2023-02-25T10:29:35;9.80;62.90
27671;DHT22;15077;49.704;9.908;2023-02-25T10:32:17;9.80;62.20
27671;DHT22;15077;49.704;9.908;2023-02-25T10:34:46;9.80;62.60
27671;DHT22;15077;49.704;9.908;2023-02-25T10:37:18;9.70;62.50
27671;DHT22;15077;49.704;9.908;2023-02-25T10:39:54;9.60;62.50
27671;DHT22;15077;49.704;9.908;2023-02-25T10:42:23;9.60;63.10
27671;DHT22;15077;49.704;9.908;2023-02-25T10:44:50;9.50;63.00
27671;DHT22;15077;49.704;9.908;2023-02-25T10:47:34;9.50;63.50
27671;DHT22;15077;49.704;9.908;2023-02-25T10:50:27;9.50;64.10
27671;DHT22;15077;49.704;9.908;2023-02-25T10:52:59;9.60;64.50
27671;DHT22;15077;49.704;9.908;2023-02-25T10:55:44;9.60;63.20
27671;DHT22;15077;49.704;9.908;2023-02-25T10:58:39;9.60;63.10
27671;DHT22;15077;49.704;9.908;2023-02-25T11:01:21;9.60;63.30
27671;DHT22;15077;49.704;9.908;2023-02-25T11:04:00;9.60;63.00
27671;DHT22;15077;49.704;9.908;2023-02-25T11:06:31;9.50;62.60
27671;DHT22;15077;49.704;9.908;2023-02-25T11:09:04;9.40;62.50
27671;DHT22;15077;49.704;9.908;2023-02-25T11:12:10;9.30;62.60
27671;DHT22;15077;49.704;9.908;2023-02-25T11:14:43;9.20;63.00
27671;DHT22;15077;49.704;9.908;2023-02-25T11:19:39;9.20;63.90
27671;DHT22;15077;49.704;9.908;2023-02-25T11:22:20;9.40;64.00
27671;DHT22;15077;49.704;9.908;2023-02-25T11:24:58;9.50;64.10
27671;DHT22;15077;49.704;9.908;2023-02-25T11:32:43;10.00;63.10
27671;DHT22;15077;49.704;9.908;2023-02-25T11:35:19;10.10;62.40
27671;DHT22;15077;49.704;9.908;2023-02-25T11:37:48;10.20;61.70
27671;DHT22;15077;49.704;9.908;2023-02-25T11:45:45;10.50;60.50
27671;DHT22;15077;49.704;9.908;2023-02-25T11:57:00;10.40;60.30
27671;DHT22;15077;49.704;9.908;2023-02-25T12:02:23;10.30;60.40
27671;DHT22;15077;49.704;9.908;2023-02-25T12:07:57;10.20;60.40
27671;DHT22;15077;49.704;9.908;2023-02-25T12:17:08;10.00;59.70
27671;DHT22;15077;49.704;9.908;2023-02-25T12:28:48;9.90;60.00
27671;DHT22;15077;49.704;9.908;2023-02-25T12:36:52;10.20;60.70
27671;DHT22;15077;49.704;9.908;2023-02-25T12:42:34;10.60;60.90
27671;DHT22;15077;49.704;9.908;2023-02-25T12:54:28;10.50;58.90
27671;DHT22;15077;49.704;9.908;2023-02-25T13:11:53;9.20;60.30
27671;DHT22;15077;49.704;9.908;2023-02-25T13:17:18;8.90;60.90
27671;DHT22;15077;49.704;9.908;2023-02-25T13:20:16;8.80;61.10
27671;DHT22;15077;49.704;9.908;2023-02-25T13:41:04;8.10;62.60
27671;DHT22;15077;49.704;9.908;2023-02-25T13:46:18;8.10;62.70
27671;DHT22;15077;49.704;9.908;2023-02-25T14:04:07;8.00;63.60
27671;DHT22;15077;49.704;9.908;2023-02-25T14:21:27;8.00;64.40
27671;DHT22;15077;49.704;9.908;2023-02-25T14:45:44;8.70;64.50
27671;DHT22;15077;49.704;9.908;2023-02-25T14:48:19;8.70;64.40
27671;DHT22;15077;49.704;9.908;2023-02-25T15:08:45;8.70;63.10
27671;DHT22;15077;49.704;9.908;2023-02-25T15:14:36;8.30;63.00
27671;DHT22;15077;49.704;9.908;2023-02-25T15:20:35;8.00;63.40
27671;DHT22;15077;49.704;9.908;2023-02-25T15:23:12;7.90;63.60
27671;DHT22;15077;49.704;9.908;2023-02-25T15:28:35;7.70;64.00
27671;DHT22;15077;49.704;9.908;2023-02-25T15:31:07;7.70;64.20
27671;DHT22;15077;49.704;9.908;2023-02-25T15:36:46;7.70;64.50
27671;DHT22;15077;49.704;9.908;2023-02-25T15:42:07;7.70;64.80
27671;DHT22;15077;49.704;9.908;2023-02-25T15:44:37;7.70;64.70
27671;DHT22;15077;49.704;9.908;2023-02-25T15:47:22;7.80;64.70
27671;DHT22;15077;49.704;9.908;2023-02-25T15:49:51;7.80;64.70
27671;DHT22;15077;49.704;9.908;2023-02-25T15:55:40;7.80;64.80
27671;DHT22;15077;49.704;9.908;2023-02-25T16:06:27;7.90;64.60
27671;DHT22;15077;49.704;9.908;2023-02-25T16:09:11;7.90;64.60
27671;DHT22;15077;49.704;9.908;2023-02-25T16:11:45;7.90;64.50
27671;DHT22;15077;49.704;9.908;2023-02-25T16:16:50;7.90;64.40
27671;DHT22;15077;49.704;9.908;2023-02-25T16:19:23;7.80;64.40
27671;DHT22;15077;49.704;9.908;2023-02-25T16:22:04;7.80;64.50
27671;DHT22;15077;49.704;9.908;2023-02-25T16:24:35;7.80;64.50
27671;DHT22;15077;49.704;9.908;2023-02-25T16:36:32;7.60;63.90
27671;DHT22;15077;49.704;9.908;2023-02-25T16:39:18;7.60;63.90
27671;DHT22;15077;49.704;9.908;2023-02-25T16:41:51;7.60;63.90
27671;DHT22;15077;49.704;9.908;2023-02-25T16:44:26;7.60;63.90
27671;DHT22;15077;49.704;9.908;2023-02-25T16:46:55;7.60;63.90
27671;DHT22;15077;49.704;9.908;2023-02-25T16:49:38;7.50;63.90
27671;DHT22;15077;49.704;9.908;2023-02-25T16:52:15;7.50;63.80
27671;DHT22;15077;49.704;9.908;2023-02-25T16:54:44;7.50;63.80
27671;DHT22;15077;49.704;9.908;2023-02-25T16:57:21;7.40;63.70
27671;DHT22;15077;49.704;9.908;2023-02-25T16:59:49;7.50;63.60
27671;DHT22;15077;49.704;9.908;2023-02-25T17:02:29;7.40;63.60
27671;DHT22;15077;49.704;9.908;2023-02-25T17:04:55;7.40;63.60
27671;DHT22;15077;49.704;9.908;2023-02-25T17:09:49;7.30;63.50
27671;DHT22;15077;49.704;9.908;2023-02-25T17:12:35;7.30;63.10
27671;DHT22;15077;49.704;9.908;2023-02-25T17:15:04;7.30;63.00
27671;DHT22;15077;49.704;9.908;2023-02-25T17:17:40;7.30;63.20
27671;DHT22;15077;49.704;9.908;2023-02-25T17:20:21;7.30;62.40
27671;DHT22;15077;49.704;9.908;2023-02-25T17:22:50;7.20;62.20
27671;DHT22;15077;49.704;9.908;2023-02-25T17:25:16;7.20;62.30
27671;DHT22;15077;49.704;9.908;2023-02-25T17:27:46;7.10;62.00
27671;DHT22;15077;49.704;9.908;2023-02-25T17:30:41;7.10;62.00
27671;DHT22;15077;49.704;9.908;2023-02-25T17:33:22;7.00;62.10
27671;DHT22;15077;49.704;9.908;2023-02-25T17:35:53;7.00;61.90
27671;DHT22;15077;49.704;9.908;2023-02-25T17:38:23;6.90;62.10
27671;DHT22;15077;49.704;9.908;2023-02-25T17:40:51;6.90;61.90
27671;DHT22;15077;49.704;9.908;2023-02-25T17:43:24;6.80;61.60
27671;DHT22;15077;49.704;9.908;2023-02-25T17:45:59;6.80;61.40
27671;DHT22;15077;49.704;9.908;2023-02-25T17:48:31;6.70;61.30
27671;DHT22;15077;49.704;9.908;2023-02-25T17:51:06;6.70;61.10
27671;DHT22;15077;49.704;9.908;2023-02-25T17:53:55;6.60;61.20
27671;DHT22;15077;49.704;9.908;2023-02-25T17:56:29;6.60;61.20
27671;DHT22;15077;49.704;9.908;2023-02-25T17:59:03;6.50;61.00
27671;DHT22;15077;49.704;9.908;2023-02-25T18:01:43;6.50;61.40
27671;DHT22;15077;49.704;9.908;2023-02-25T18:04:36;6.40;61.10
27671;DHT22;15077;49.704;9.908;2023-02-25T18:07:30;6.40;61.20
27671;DHT22;15077;49.704;9.908;2023-02-25T18:09:58;6.30;60.90
27671;DHT22;15077;49.704;9.908;2023-02-25T18:12:36;6.30;61.20
27671;DHT22;15077;49.704;9.908;2023-02-25T18:15:21;6.20;61.00
27671;DHT22;15077;49.704;9.908;2023-02-25T18:17:56;6.20;61.00
27671;DHT22;15077;49.704;9.908;2023-02-25T18:20:42;6.20;61.10
27671;DHT22;15077;49.704;9.908;2023-02-25T18:25:41;6.10;61.30
27671;DHT22;15077;49.704;9.908;2023-02-25T18:28:17;6.10;61.70
27671;DHT22;15077;49.704;9.908;2023-02-25T18:30:46;6.10;61.30
27671;DHT22;15077;49.704;9.908;2023-02-25T18:33:14;6.10;61.40
27671;DHT22;15077;49.704;9.908;2023-02-25T18:35:44;6.10;61.30
27671;DHT22;15077;49.704;9.908;2023-02-25T18:38:17;6.10;61.40
27671;DHT22;15077;49.704;9.908;2023-02-25T18:40:45;6.10;61.40
27671;DHT22;15077;49.704;9.908;2023-02-25T18:43:14;6.00;61.50
27671;DHT22;15077;49.704;9.908;2023-02-25T18:45:43;6.00;61.50
27671;DHT22;15077;49.704;9.908;2023-02-25T18:48:09;6.10;61.70
27671;DHT22;15077;49.704;9.908;2023-02-25T18:50:36;6.00;61.50
27671;DHT22;15077;49.704;9.908;2023-02-25T18:53:04;6.00;61.30
27671;DHT22;15077;49.704;9.908;2023-02-25T18:55:31;6.00;61.20
27671;DHT22;15077;49.704;9.908;2023-02-25T18:57:58;6.00;61.10
27671;DHT22;15077;49.704;9.908;2023-02-25T19:00:25;6.00;61.20
27671;DHT22;15077;49.704;9.908;2023-02-25T19:03:00;6.00;61.40
27671;DHT22;15077;49.704;9.908;2023-02-25T19:05:28;6.00;61.30
27671;DHT22;15077;49.704;9.908;2023-02-25T19:07:54;6.00;61.30
27671;DHT22;15077;49.704;9.908;2023-02-25T19:10:26;6.00;61.20
27671;DHT22;15077;49.704;9.908;2023-02-25T19:13:19;6.00;61.20
27671;DHT22;15077;49.704;9.908;2023-02-25T19:15:50;6.00;61.10
27671;DHT22;15077;49.704;9.908;2023-02-25T19:18:16;5.90;61.10
27671;DHT22;15077;49.704;9.908;2023-02-25T19:20:42;5.90;61.00
27671;DHT22;15077;49.704;9.908;2023-02-25T19:23:13;5.90;60.80
27671;DHT22;15077;49.704;9.908;2023-02-25T19:25:41;5.90;60.50
27671;DHT22;15077;49.704;9.908;2023-02-25T19:28:08;5.90;61.00
27671;DHT22;15077;49.704;9.908;2023-02-25T19:30:37;5.80;60.30
27671;DHT22;15077;49.704;9.908;2023-02-25T19:33:06;5.80;60.70
27671;DHT22;15077;49.704;9.908;2023-02-25T19:35:35;5.70;61.00
27671;DHT22;15077;49.704;9.908;2023-02-25T19:38:04;5.50;61.10
27671;DHT22;15077;49.704;9.908;2023-02-25T19:40:31;5.40;61.40
27671;DHT22;15077;49.704;9.908;2023-02-25T19:42:57;5.30;61.70
27671;DHT22;15077;49.704;9.908;2023-02-25T19:45:24;5.20;61.80
27671;DHT22;15077;49.704;9.908;2023-02-25T19:47:51;5.20;62.00
27671;DHT22;15077;49.704;9.908;2023-02-25T19:50:20;5.20;62.60
27671;DHT22;15077;49.704;9.908;2023-02-25T19:52:46;5.20;61.80
27671;DHT22;15077;49.704;9.908;2023-02-25T19:55:13;5.10;61.70
27671;DHT22;15077;49.704;9.908;2023-02-25T19:57:40;5.10;61.70
27671;DHT22;15077;49.704;9.908;2023-02-25T20:00:08;5.10;61.70
27671;DHT22;15077;49.704;9.908;2023-02-25T20:02:36;5.10;61.90
27671;DHT22;15077;49.704;9.908;2023-02-25T20:05:02;5.10;61.90
27671;DHT22;15077;49.704;9.908;2023-02-25T20:07:28;5.10;61.90
27671;DHT22;15077;49.704;9.908;2023-02-25T20:09:56;5.20;61.90
27671;DHT22;15077;49.704;9.908;2023-02-25T20:12:22;5.20;61.70
27671;DHT22;15077;49.704;9.908;2023-02-25T20:14:47;5.20;61.60
27671;DHT22;15077;49.704;9.908;2023-02-25T20:17:13;5.20;61.70